sensor_id;sensor_type;location;lat;lon;timestamp;P1;durP1;ratioP1;P2;durP2;ratioP2
21488;SDS011;10906;45.194;5.684;2022-09-09T05:03:19;2.67;;;1.60;;
21488;SDS011;10906;45.194;5.684;2022-09-09T05:06:08;3.13;;;1.55;;
21488;SDS011;10906;45.194;5.684;2022-09-09T05:08:54;4.57;;;1.80;;
21488;SDS011;10906;45.194;5.684;2022-09-09T05:11:39;3.38;;;1.23;;
21488;SDS011;10906;45.194;5.684;2022-09-09T05:14:23;4.75;;;1.70;;
21488;SDS011;10906;45.194;5.684;2022-09-09T05:19:51;5.63;;;1.98;;
21488;SDS011;10906;45.194;5.684;2022-09-09T05:22:35;4.35;;;1.48;;
21488;SDS011;10906;45.194;5.684;2022-09-09T05:25:20;6.43;;;1.63;;
21488;SDS011;10906;45.194;5.684;2022-09-09T05:28:05;5.88;;;1.52;;
21488;SDS011;10906;45.194;5.684;2022-09-09T05:30:55;7.18;;;1.80;;
21488;SDS011;10906;45.194;5.684;2022-09-09T05:33:51;6.15;;;1.70;;
21488;SDS011;10906;45.194;5.684;2022-09-09T05:36:36;4.05;;;1.80;;
21488;SDS011;10906;45.194;5.684;2022-09-09T05:42:04;6.65;;;1.95;;
21488;SDS011;10906;45.194;5.684;2022-09-09T05:44:49;6.90;;;1.70;;
21488;SDS011;10906;45.194;5.684;2022-09-09T05:47:35;4.07;;;1.63;;
21488;SDS011;10906;45.194;5.684;2022-09-09T05:50:21;8.50;;;1.67;;
21488;SDS011;10906;45.194;5.684;2022-09-09T05:53:05;13.35;;;1.60;;
21488;SDS011;10906;45.194;5.684;2022-09-09T05:55:50;13.15;;;2.22;;
21488;SDS011;10906;45.194;5.684;2022-09-09T05:58:41;9.50;;;2.50;;
21488;SDS011;10906;45.194;5.684;2022-09-09T06:01:31;11.35;;;2.10;;
21488;SDS011;10906;45.194;5.684;2022-09-09T06:04:17;15.93;;;2.22;;
21488;SDS011;10906;45.194;5.684;2022-09-09T06:07:04;6.80;;;1.98;;
21488;SDS011;10906;45.194;5.684;2022-09-09T06:09:49;13.00;;;2.20;;
21488;SDS011;10906;45.194;5.684;2022-09-09T06:12:34;13.60;;;2.30;;
21488;SDS011;10906;45.194;5.684;2022-09-09T06:15:19;4.88;;;1.92;;
21488;SDS011;10906;45.194;5.684;2022-09-09T06:18:04;7.93;;;2.10;;
21488;SDS011;10906;45.194;5.684;2022-09-09T06:23:40;7.32;;;2.05;;
21488;SDS011;10906;45.194;5.684;2022-09-09T06:26:25;10.63;;;1.98;;
21488;SDS011;10906;45.194;5.684;2022-09-09T06:29:11;6.85;;;1.98;;
21488;SDS011;10906;45.194;5.684;2022-09-09T06:31:55;10.77;;;2.35;;
21488;SDS011;10906;45.194;5.684;2022-09-09T06:34:40;8.30;;;1.80;;
21488;SDS011;10906;45.194;5.684;2022-09-09T06:37:24;9.95;;;2.30;;
21488;SDS011;10906;45.194;5.684;2022-09-09T06:40:10;9.25;;;2.20;;
21488;SDS011;10906;45.194;5.684;2022-09-09T06:42:54;6.20;;;2.05;;
21488;SDS011;10906;45.194;5.684;2022-09-09T06:45:43;5.38;;;2.00;;
21488;SDS011;10906;45.194;5.684;2022-09-09T06:48:28;8.38;;;2.05;;
21488;SDS011;10906;45.194;5.684;2022-09-09T06:51:14;8.65;;;2.08;;
21488;SDS011;10906;45.194;5.684;2022-09-09T06:54:05;7.40;;;2.00;;
21488;SDS011;10906;45.194;5.684;2022-09-09T06:56:49;5.00;;;1.85;;
21488;SDS011;10906;45.194;5.684;2022-09-09T06:59:34;10.88;;;2.38;;
21488;SDS011;10906;45.194;5.684;2022-09-09T07:05:02;8.68;;;2.67;;
21488;SDS011;10906;45.194;5.684;2022-09-09T07:07:47;13.20;;;2.38;;
21488;SDS011;10906;45.194;5.684;2022-09-09T07:10:31;12.75;;;2.58;;
21488;SDS011;10906;45.194;5.684;2022-09-09T07:13:18;8.38;;;2.47;;
21488;SDS011;10906;45.194;5.684;2022-09-09T07:16:06;11.10;;;2.08;;
21488;SDS011;10906;45.194;5.684;2022-09-09T07:18:53;11.63;;;2.53;;
21488;SDS011;10906;45.194;5.684;2022-09-09T07:21:41;12.48;;;2.03;;
21488;SDS011;10906;45.194;5.684;2022-09-09T07:24:26;6.35;;;2.08;;
21488;SDS011;10906;45.194;5.684;2022-09-09T07:27:14;11.40;;;2.30;;
21488;SDS011;10906;45.194;5.684;2022-09-09T07:29:58;18.73;;;3.45;;
21488;SDS011;10906;45.194;5.684;2022-09-09T07:32:42;17.10;;;3.00;;
21488;SDS011;10906;45.194;5.684;2022-09-09T07:38:10;12.80;;;2.78;;
21488;SDS011;10906;45.194;5.684;2022-09-09T07:41:02;14.05;;;3.28;;
21488;SDS011;10906;45.194;5.684;2022-09-09T07:43:50;15.80;;;3.20;;
21488;SDS011;10906;45.194;5.684;2022-09-09T07:46:37;15.60;;;2.95;;
21488;SDS011;10906;45.194;5.684;2022-09-09T07:49:25;18.10;;;3.45;;
21488;SDS011;10906;45.194;5.684;2022-09-09T07:52:09;8.20;;;2.30;;
21488;SDS011;10906;45.194;5.684;2022-09-09T07:54:55;14.15;;;2.53;;
21488;SDS011;10906;45.194;5.684;2022-09-09T07:57:40;8.93;;;2.10;;
21488;SDS011;10906;45.194;5.684;2022-09-09T08:00:25;9.63;;;2.33;;
21488;SDS011;10906;45.194;5.684;2022-09-09T08:03:12;14.05;;;2.47;;
21488;SDS011;10906;45.194;5.684;2022-09-09T08:05:59;9.63;;;2.28;;
21488;SDS011;10906;45.194;5.684;2022-09-09T08:08:45;12.13;;;2.13;;
21488;SDS011;10906;45.194;5.684;2022-09-09T08:11:34;7.90;;;2.33;;
21488;SDS011;10906;45.194;5.684;2022-09-09T08:14:19;6.30;;;2.22;;
21488;SDS011;10906;45.194;5.684;2022-09-09T08:17:04;8.93;;;2.13;;
21488;SDS011;10906;45.194;5.684;2022-09-09T08:19:48;8.43;;;1.85;;
21488;SDS011;10906;45.194;5.684;2022-09-09T08:22:33;7.88;;;1.73;;
21488;SDS011;10906;45.194;5.684;2022-09-09T08:25:18;9.00;;;2.03;;
21488;SDS011;10906;45.194;5.684;2022-09-09T08:28:02;7.57;;;2.33;;
21488;SDS011;10906;45.194;5.684;2022-09-09T08:30:47;8.15;;;2.05;;
21488;SDS011;10906;45.194;5.684;2022-09-09T08:33:31;11.40;;;2.03;;
21488;SDS011;10906;45.194;5.684;2022-09-09T08:36:18;11.32;;;2.05;;
21488;SDS011;10906;45.194;5.684;2022-09-09T08:39:06;9.48;;;2.10;;
21488;SDS011;10906;45.194;5.684;2022-09-09T08:50:41;10.30;;;1.65;;
21488;SDS011;10906;45.194;5.684;2022-09-09T08:53:27;7.45;;;1.50;;
21488;SDS011;10906;45.194;5.684;2022-09-09T08:56:18;6.18;;;1.42;;
21488;SDS011;10906;45.194;5.684;2022-09-09T08:59:07;10.77;;;1.50;;
21488;SDS011;10906;45.194;5.684;2022-09-09T09:11:34;8.40;;;1.13;;
21488;SDS011;10906;45.194;5.684;2022-09-09T09:14:21;3.63;;;1.20;;
21488;SDS011;10906;45.194;5.684;2022-09-09T09:17:11;5.05;;;1.30;;
21488;SDS011;10906;45.194;5.684;2022-09-09T09:19:58;4.20;;;0.90;;
21488;SDS011;10906;45.194;5.684;2022-09-09T09:22:50;3.70;;;1.35;;
21488;SDS011;10906;45.194;5.684;2022-09-09T09:25:38;3.80;;;1.00;;
21488;SDS011;10906;45.194;5.684;2022-09-09T09:28:29;6.75;;;1.38;;
21488;SDS011;10906;45.194;5.684;2022-09-09T09:31:16;5.35;;;1.08;;
21488;SDS011;10906;45.194;5.684;2022-09-09T09:34:03;3.63;;;1.20;;
21488;SDS011;10906;45.194;5.684;2022-09-09T09:36:57;4.93;;;1.10;;
21488;SDS011;10906;45.194;5.684;2022-09-09T09:39:46;3.70;;;1.20;;
21488;SDS011;10906;45.194;5.684;2022-09-09T09:42:32;4.78;;;1.15;;
21488;SDS011;10906;45.194;5.684;2022-09-09T09:48:25;5.53;;;1.13;;
21488;SDS011;10906;45.194;5.684;2022-09-09T09:51:12;2.50;;;1.08;;
21488;SDS011;10906;45.194;5.684;2022-09-09T09:54:04;3.75;;;1.20;;
21488;SDS011;10906;45.194;5.684;2022-09-09T09:56:56;4.13;;;0.90;;
21488;SDS011;10906;45.194;5.684;2022-09-09T10:00:14;3.22;;;0.90;;
21488;SDS011;10906;45.194;5.684;2022-09-09T10:03:01;3.58;;;1.15;;
21488;SDS011;10906;45.194;5.684;2022-09-09T10:05:45;3.75;;;1.15;;
21488;SDS011;10906;45.194;5.684;2022-09-09T10:08:33;5.72;;;1.25;;
21488;SDS011;10906;45.194;5.684;2022-09-09T10:11:23;4.00;;;1.00;;
21488;SDS011;10906;45.194;5.684;2022-09-09T10:14:39;4.45;;;1.05;;
21488;SDS011;10906;45.194;5.684;2022-09-09T10:29:43;2.80;;;1.08;;
21488;SDS011;10906;45.194;5.684;2022-09-09T10:39:03;4.00;;;1.20;;
21488;SDS011;10906;45.194;5.684;2022-09-09T10:41:57;5.28;;;1.13;;
21488;SDS011;10906;45.194;5.684;2022-09-09T10:47:53;3.65;;;1.15;;
21488;SDS011;10906;45.194;5.684;2022-09-09T10:50:58;3.75;;;1.23;;
21488;SDS011;10906;45.194;5.684;2022-09-09T10:57:13;2.20;;;0.82;;
21488;SDS011;10906;45.194;5.684;2022-09-09T11:00:14;3.53;;;1.50;;
21488;SDS011;10906;45.194;5.684;2022-09-09T11:03:02;3.55;;;1.20;;
21488;SDS011;10906;45.194;5.684;2022-09-09T11:05:55;4.22;;;1.10;;
21488;SDS011;10906;45.194;5.684;2022-09-09T11:08:41;1.35;;;0.98;;
21488;SDS011;10906;45.194;5.684;2022-09-09T11:11:27;2.03;;;0.93;;
21488;SDS011;10906;45.194;5.684;2022-09-09T11:14:26;1.92;;;0.90;;
21488;SDS011;10906;45.194;5.684;2022-09-09T11:17:35;2.03;;;0.75;;
21488;SDS011;10906;45.194;5.684;2022-09-09T11:23:25;4.15;;;1.30;;
21488;SDS011;10906;45.194;5.684;2022-09-09T11:26:18;4.25;;;1.08;;
21488;SDS011;10906;45.194;5.684;2022-09-09T11:29:25;3.17;;;1.00;;
21488;SDS011;10906;45.194;5.684;2022-09-09T11:38:28;2.58;;;0.95;;
21488;SDS011;10906;45.194;5.684;2022-09-09T11:41:20;3.40;;;1.10;;
21488;SDS011;10906;45.194;5.684;2022-09-09T11:44:11;4.15;;;1.15;;
21488;SDS011;10906;45.194;5.684;2022-09-09T11:47:00;4.65;;;1.00;;
21488;SDS011;10906;45.194;5.684;2022-09-09T11:49:45;5.82;;;1.20;;
21488;SDS011;10906;45.194;5.684;2022-09-09T11:52:37;2.70;;;1.00;;
21488;SDS011;10906;45.194;5.684;2022-09-09T11:55:32;4.32;;;1.00;;
21488;SDS011;10906;45.194;5.684;2022-09-09T11:58:19;2.60;;;1.10;;
21488;SDS011;10906;45.194;5.684;2022-09-09T12:01:16;6.60;;;1.30;;
21488;SDS011;10906;45.194;5.684;2022-09-09T12:07:21;4.82;;;1.15;;
21488;SDS011;10906;45.194;5.684;2022-09-09T12:13:24;4.07;;;1.05;;
21488;SDS011;10906;45.194;5.684;2022-09-09T12:16:27;2.92;;;0.80;;
21488;SDS011;10906;45.194;5.684;2022-09-09T12:19:16;2.53;;;0.85;;
21488;SDS011;10906;45.194;5.684;2022-09-09T12:25:22;4.72;;;1.27;;
21488;SDS011;10906;45.194;5.684;2022-09-09T12:28:12;2.80;;;0.90;;
21488;SDS011;10906;45.194;5.684;2022-09-09T12:34:20;2.13;;;1.00;;
21488;SDS011;10906;45.194;5.684;2022-09-09T12:37:31;3.63;;;0.88;;
21488;SDS011;10906;45.194;5.684;2022-09-09T12:40:24;2.65;;;0.77;;
21488;SDS011;10906;45.194;5.684;2022-09-09T12:43:18;1.92;;;0.93;;
21488;SDS011;10906;45.194;5.684;2022-09-09T12:48:52;2.10;;;0.93;;
21488;SDS011;10906;45.194;5.684;2022-09-09T12:51:37;1.02;;;0.93;;
21488;SDS011;10906;45.194;5.684;2022-09-09T12:54:21;1.98;;;0.90;;
21488;SDS011;10906;45.194;5.684;2022-09-09T12:57:09;2.83;;;0.85;;
21488;SDS011;10906;45.194;5.684;2022-09-09T13:00:03;2.53;;;1.10;;
21488;SDS011;10906;45.194;5.684;2022-09-09T13:03:19;1.90;;;0.93;;
21488;SDS011;10906;45.194;5.684;2022-09-09T13:06:11;2.67;;;0.80;;
21488;SDS011;10906;45.194;5.684;2022-09-09T13:08:58;3.45;;;0.82;;
21488;SDS011;10906;45.194;5.684;2022-09-09T13:11:45;4.50;;;1.10;;
21488;SDS011;10906;45.194;5.684;2022-09-09T13:14:34;5.10;;;0.98;;
21488;SDS011;10906;45.194;5.684;2022-09-09T13:17:22;1.35;;;1.23;;
21488;SDS011;10906;45.194;5.684;2022-09-09T13:20:19;2.85;;;0.93;;
21488;SDS011;10906;45.194;5.684;2022-09-09T13:23:04;1.45;;;0.65;;
21488;SDS011;10906;45.194;5.684;2022-09-09T13:25:56;3.03;;;0.85;;
21488;SDS011;10906;45.194;5.684;2022-09-09T13:28:41;2.10;;;0.98;;
21488;SDS011;10906;45.194;5.684;2022-09-09T13:31:30;2.10;;;1.02;;
21488;SDS011;10906;45.194;5.684;2022-09-09T13:34:30;2.40;;;1.23;;
21488;SDS011;10906;45.194;5.684;2022-09-09T13:37:19;4.18;;;1.00;;
21488;SDS011;10906;45.194;5.684;2022-09-09T13:40:19;5.50;;;1.05;;
21488;SDS011;10906;45.194;5.684;2022-09-09T13:43:05;3.42;;;0.80;;
21488;SDS011;10906;45.194;5.684;2022-09-09T13:46:01;3.00;;;0.80;;
21488;SDS011;10906;45.194;5.684;2022-09-09T13:48:55;2.90;;;1.02;;
21488;SDS011;10906;45.194;5.684;2022-09-09T13:51:44;4.53;;;0.85;;
21488;SDS011;10906;45.194;5.684;2022-09-09T13:54:30;3.00;;;1.10;;
21488;SDS011;10906;45.194;5.684;2022-09-09T13:57:32;4.45;;;0.90;;
21488;SDS011;10906;45.194;5.684;2022-09-09T14:00:17;2.90;;;1.00;;
21488;SDS011;10906;45.194;5.684;2022-09-09T14:03:02;3.63;;;1.05;;
21488;SDS011;10906;45.194;5.684;2022-09-09T14:05:46;1.23;;;0.70;;
21488;SDS011;10906;45.194;5.684;2022-09-09T14:08:31;5.18;;;1.02;;
21488;SDS011;10906;45.194;5.684;2022-09-09T14:11:21;2.60;;;0.90;;
21488;SDS011;10906;45.194;5.684;2022-09-09T14:14:05;4.43;;;1.10;;
21488;SDS011;10906;45.194;5.684;2022-09-09T14:16:50;2.72;;;0.98;;
21488;SDS011;10906;45.194;5.684;2022-09-09T14:19:34;3.75;;;0.98;;
21488;SDS011;10906;45.194;5.684;2022-09-09T14:22:19;3.05;;;1.13;;
21488;SDS011;10906;45.194;5.684;2022-09-09T14:25:03;1.85;;;0.80;;
21488;SDS011;10906;45.194;5.684;2022-09-09T14:27:49;4.30;;;0.90;;
21488;SDS011;10906;45.194;5.684;2022-09-09T14:30:34;3.00;;;1.00;;
21488;SDS011;10906;45.194;5.684;2022-09-09T14:33:20;3.83;;;0.80;;
21488;SDS011;10906;45.194;5.684;2022-09-09T14:36:05;1.95;;;0.73;;
21488;SDS011;10906;45.194;5.684;2022-09-09T14:38:50;2.38;;;0.70;;
21488;SDS011;10906;45.194;5.684;2022-09-09T14:41:34;2.42;;;0.93;;
21488;SDS011;10906;45.194;5.684;2022-09-09T14:44:19;3.13;;;0.90;;
21488;SDS011;10906;45.194;5.684;2022-09-09T14:47:04;2.10;;;0.80;;
21488;SDS011;10906;45.194;5.684;2022-09-09T14:49:48;1.67;;;0.88;;
21488;SDS011;10906;45.194;5.684;2022-09-09T14:52:33;4.10;;;0.88;;
21488;SDS011;10906;45.194;5.684;2022-09-09T14:55:17;1.70;;;0.73;;
21488;SDS011;10906;45.194;5.684;2022-09-09T14:58:02;1.77;;;0.90;;
21488;SDS011;10906;45.194;5.684;2022-09-09T15:00:47;2.78;;;0.90;;
21488;SDS011;10906;45.194;5.684;2022-09-09T15:03:32;2.53;;;0.70;;
21488;SDS011;10906;45.194;5.684;2022-09-09T15:06:18;4.53;;;1.17;;
21488;SDS011;10906;45.194;5.684;2022-09-09T15:09:03;2.90;;;0.82;;
21488;SDS011;10906;45.194;5.684;2022-09-09T15:11:47;2.22;;;0.90;;
21488;SDS011;10906;45.194;5.684;2022-09-09T15:14:31;4.95;;;1.05;;
21488;SDS011;10906;45.194;5.684;2022-09-09T15:17:15;2.83;;;0.70;;
21488;SDS011;10906;45.194;5.684;2022-09-09T15:20:00;3.97;;;0.80;;
21488;SDS011;10906;45.194;5.684;2022-09-09T15:22:46;3.50;;;0.82;;
21488;SDS011;10906;45.194;5.684;2022-09-09T15:25:31;3.65;;;0.80;;
21488;SDS011;10906;45.194;5.684;2022-09-09T15:28:15;2.13;;;0.85;;
21488;SDS011;10906;45.194;5.684;2022-09-09T15:31:00;4.80;;;1.13;;
21488;SDS011;10906;45.194;5.684;2022-09-09T15:33:51;2.38;;;0.95;;
21488;SDS011;10906;45.194;5.684;2022-09-09T15:36:39;3.78;;;0.80;;
21488;SDS011;10906;45.194;5.684;2022-09-09T15:39:25;3.05;;;1.05;;
21488;SDS011;10906;45.194;5.684;2022-09-09T15:42:09;2.35;;;0.93;;
21488;SDS011;10906;45.194;5.684;2022-09-09T15:44:54;1.85;;;1.00;;
21488;SDS011;10906;45.194;5.684;2022-09-09T15:47:39;1.67;;;1.00;;
21488;SDS011;10906;45.194;5.684;2022-09-09T15:50:23;2.00;;;1.58;;
21488;SDS011;10906;45.194;5.684;2022-09-09T15:53:08;2.45;;;1.17;;
21488;SDS011;10906;45.194;5.684;2022-09-09T15:55:54;1.85;;;1.10;;
21488;SDS011;10906;45.194;5.684;2022-09-09T15:58:39;2.13;;;1.15;;
21488;SDS011;10906;45.194;5.684;2022-09-09T16:01:24;3.42;;;1.10;;
21488;SDS011;10906;45.194;5.684;2022-09-09T16:04:09;2.60;;;1.33;;
21488;SDS011;10906;45.194;5.684;2022-09-09T16:07:04;2.38;;;0.95;;
21488;SDS011;10906;45.194;5.684;2022-09-09T16:09:49;1.33;;;0.90;;
21488;SDS011;10906;45.194;5.684;2022-09-09T16:12:37;3.08;;;1.02;;
21488;SDS011;10906;45.194;5.684;2022-09-09T16:15:22;1.88;;;0.98;;
21488;SDS011;10906;45.194;5.684;2022-09-09T16:18:07;5.82;;;1.48;;
21488;SDS011;10906;45.194;5.684;2022-09-09T16:20:54;2.45;;;1.08;;
21488;SDS011;10906;45.194;5.684;2022-09-09T16:23:39;4.85;;;1.17;;
21488;SDS011;10906;45.194;5.684;2022-09-09T16:26:23;2.42;;;1.10;;
21488;SDS011;10906;45.194;5.684;2022-09-09T16:29:09;3.97;;;1.10;;
21488;SDS011;10906;45.194;5.684;2022-09-09T16:31:53;2.78;;;1.20;;
21488;SDS011;10906;45.194;5.684;2022-09-09T16:34:38;4.47;;;1.58;;
21488;SDS011;10906;45.194;5.684;2022-09-09T16:37:23;5.35;;;1.05;;
21488;SDS011;10906;45.194;5.684;2022-09-09T16:40:08;2.05;;;1.20;;
21488;SDS011;10906;45.194;5.684;2022-09-09T16:42:52;2.78;;;1.35;;
21488;SDS011;10906;45.194;5.684;2022-09-09T16:45:44;4.57;;;1.40;;
21488;SDS011;10906;45.194;5.684;2022-09-09T16:48:32;3.50;;;1.20;;
21488;SDS011;10906;45.194;5.684;2022-09-09T16:51:18;5.53;;;1.35;;
21488;SDS011;10906;45.194;5.684;2022-09-09T16:54:09;2.42;;;1.42;;
21488;SDS011;10906;45.194;5.684;2022-09-09T16:56:54;2.35;;;1.25;;
21488;SDS011;10906;45.194;5.684;2022-09-09T16:59:38;4.70;;;1.40;;
21488;SDS011;10906;45.194;5.684;2022-09-09T17:02:23;1.55;;;0.88;;
21488;SDS011;10906;45.194;5.684;2022-09-09T17:05:08;3.28;;;1.42;;
21488;SDS011;10906;45.194;5.684;2022-09-09T17:07:53;3.05;;;1.40;;
21488;SDS011;10906;45.194;5.684;2022-09-09T17:10:40;4.00;;;1.65;;
21488;SDS011;10906;45.194;5.684;2022-09-09T17:13:25;4.60;;;2.05;;
21488;SDS011;10906;45.194;5.684;2022-09-09T17:16:10;3.40;;;1.95;;
21488;SDS011;10906;45.194;5.684;2022-09-09T17:18:55;6.25;;;2.50;;
21488;SDS011;10906;45.194;5.684;2022-09-09T17:21:40;4.95;;;2.10;;
21488;SDS011;10906;45.194;5.684;2022-09-09T17:24:25;3.80;;;1.60;;
21488;SDS011;10906;45.194;5.684;2022-09-09T17:27:13;7.07;;;1.50;;
21488;SDS011;10906;45.194;5.684;2022-09-09T17:30:00;4.22;;;1.40;;
21488;SDS011;10906;45.194;5.684;2022-09-09T17:32:46;5.30;;;2.42;;
21488;SDS011;10906;45.194;5.684;2022-09-09T17:35:30;7.10;;;1.58;;
21488;SDS011;10906;45.194;5.684;2022-09-09T17:38:15;4.85;;;1.42;;
21488;SDS011;10906;45.194;5.684;2022-09-09T17:41:03;4.72;;;1.20;;
21488;SDS011;10906;45.194;5.684;2022-09-09T17:43:50;4.25;;;1.55;;
21488;SDS011;10906;45.194;5.684;2022-09-09T17:46:36;4.45;;;1.25;;
21488;SDS011;10906;45.194;5.684;2022-09-09T17:49:25;4.25;;;1.10;;
21488;SDS011;10906;45.194;5.684;2022-09-09T17:52:09;3.10;;;1.30;;
21488;SDS011;10906;45.194;5.684;2022-09-09T17:54:54;6.68;;;1.30;;
21488;SDS011;10906;45.194;5.684;2022-09-09T17:57:40;3.38;;;1.48;;
21488;SDS011;10906;45.194;5.684;2022-09-09T18:00:24;4.22;;;1.48;;
21488;SDS011;10906;45.194;5.684;2022-09-09T18:03:08;3.60;;;0.93;;
21488;SDS011;10906;45.194;5.684;2022-09-09T18:05:58;4.28;;;1.30;;
21488;SDS011;10906;45.194;5.684;2022-09-09T18:08:47;3.42;;;1.45;;
21488;SDS011;10906;45.194;5.684;2022-09-09T18:11:37;5.25;;;1.30;;
21488;SDS011;10906;45.194;5.684;2022-09-09T18:14:29;4.57;;;1.25;;
21488;SDS011;10906;45.194;5.684;2022-09-09T18:17:15;3.65;;;1.05;;
21488;SDS011;10906;45.194;5.684;2022-09-09T18:19:59;4.10;;;1.35;;
21488;SDS011;10906;45.194;5.684;2022-09-09T18:22:46;5.22;;;1.40;;
21488;SDS011;10906;45.194;5.684;2022-09-09T18:25:31;5.25;;;1.33;;
21488;SDS011;10906;45.194;5.684;2022-09-09T18:28:21;6.30;;;1.70;;
21488;SDS011;10906;45.194;5.684;2022-09-09T18:31:06;4.80;;;1.73;;
21488;SDS011;10906;45.194;5.684;2022-09-09T18:33:53;5.57;;;1.40;;
21488;SDS011;10906;45.194;5.684;2022-09-09T18:36:43;4.38;;;1.48;;
21488;SDS011;10906;45.194;5.684;2022-09-09T18:39:29;2.60;;;1.20;;
21488;SDS011;10906;45.194;5.684;2022-09-09T18:42:14;3.78;;;0.93;;
21488;SDS011;10906;45.194;5.684;2022-09-09T18:44:58;1.45;;;0.70;;
21488;SDS011;10906;45.194;5.684;2022-09-09T18:47:43;3.13;;;1.35;;
21488;SDS011;10906;45.194;5.684;2022-09-09T18:50:27;2.58;;;1.13;;
21488;SDS011;10906;45.194;5.684;2022-09-09T18:53:12;3.38;;;1.20;;
21488;SDS011;10906;45.194;5.684;2022-09-09T18:55:59;3.15;;;1.20;;
21488;SDS011;10906;45.194;5.684;2022-09-09T18:58:44;2.42;;;1.40;;
21488;SDS011;10906;45.194;5.684;2022-09-09T19:01:31;3.13;;;1.20;;
21488;SDS011;10906;45.194;5.684;2022-09-09T19:04:19;6.40;;;1.27;;
21488;SDS011;10906;45.194;5.684;2022-09-09T19:07:05;2.40;;;1.20;;
21488;SDS011;10906;45.194;5.684;2022-09-09T19:09:49;2.40;;;1.10;;
21488;SDS011;10906;45.194;5.684;2022-09-09T19:18:01;2.58;;;1.15;;
21488;SDS011;10906;45.194;5.684;2022-09-09T19:20:46;4.18;;;1.10;;
21488;SDS011;10906;45.194;5.684;2022-09-09T19:23:31;4.38;;;1.42;;
21488;SDS011;10906;45.194;5.684;2022-09-09T19:26:15;3.88;;;1.15;;
21488;SDS011;10906;45.194;5.684;2022-09-09T19:29:00;2.28;;;1.20;;
21488;SDS011;10906;45.194;5.684;2022-09-09T19:31:46;3.38;;;1.10;;
21488;SDS011;10906;45.194;5.684;2022-09-09T19:34:31;2.30;;;1.23;;
21488;SDS011;10906;45.194;5.684;2022-09-09T19:37:16;4.57;;;1.00;;
21488;SDS011;10906;45.194;5.684;2022-09-09T19:40:00;2.67;;;1.00;;
21488;SDS011;10906;45.194;5.684;2022-09-09T19:42:45;5.05;;;1.02;;
21488;SDS011;10906;45.194;5.684;2022-09-09T19:45:31;3.10;;;1.05;;
21488;SDS011;10906;45.194;5.684;2022-09-09T19:48:15;4.18;;;1.15;;
21488;SDS011;10906;45.194;5.684;2022-09-09T19:51:04;6.57;;;1.23;;
21488;SDS011;10906;45.194;5.684;2022-09-09T19:53:53;4.28;;;1.08;;
21488;SDS011;10906;45.194;5.684;2022-09-09T19:56:43;3.42;;;1.20;;
21488;SDS011;10906;45.194;5.684;2022-09-09T19:59:27;3.08;;;1.00;;
21488;SDS011;10906;45.194;5.684;2022-09-09T20:02:12;3.17;;;0.98;;
21488;SDS011;10906;45.194;5.684;2022-09-09T20:04:58;2.92;;;1.30;;
21488;SDS011;10906;45.194;5.684;2022-09-09T20:10:31;2.35;;;1.23;;
21488;SDS011;10906;45.194;5.684;2022-09-09T20:13:15;8.57;;;2.20;;
21488;SDS011;10906;45.194;5.684;2022-09-09T20:16:04;9.65;;;1.50;;
21488;SDS011;10906;45.194;5.684;2022-09-09T20:18:55;7.57;;;1.50;;
21488;SDS011;10906;45.194;5.684;2022-09-09T20:21:41;4.07;;;1.27;;
21488;SDS011;10906;45.194;5.684;2022-09-09T20:24:28;4.25;;;1.35;;
21488;SDS011;10906;45.194;5.684;2022-09-09T20:27:12;4.35;;;1.38;;
21488;SDS011;10906;45.194;5.684;2022-09-09T20:29:57;8.65;;;1.50;;
21488;SDS011;10906;45.194;5.684;2022-09-09T20:32:41;6.18;;;1.60;;
21488;SDS011;10906;45.194;5.684;2022-09-09T20:35:27;4.85;;;1.58;;
21488;SDS011;10906;45.194;5.684;2022-09-09T20:38:11;2.95;;;1.42;;
21488;SDS011;10906;45.194;5.684;2022-09-09T20:40:55;3.63;;;1.33;;
21488;SDS011;10906;45.194;5.684;2022-09-09T20:43:44;3.38;;;1.10;;
21488;SDS011;10906;45.194;5.684;2022-09-09T20:46:32;3.92;;;1.10;;
21488;SDS011;10906;45.194;5.684;2022-09-09T20:49:22;3.55;;;0.90;;
21488;SDS011;10906;45.194;5.684;2022-09-09T20:52:07;5.75;;;1.25;;
21488;SDS011;10906;45.194;5.684;2022-09-09T20:54:53;2.28;;;1.00;;
21488;SDS011;10906;45.194;5.684;2022-09-09T20:57:38;4.75;;;0.80;;
21488;SDS011;10906;45.194;5.684;2022-09-09T21:00:23;6.97;;;1.30;;
21488;SDS011;10906;45.194;5.684;2022-09-09T21:03:07;4.57;;;1.30;;
21488;SDS011;10906;45.194;5.684;2022-09-09T21:05:52;5.97;;;1.20;;
21488;SDS011;10906;45.194;5.684;2022-09-09T21:08:37;2.90;;;0.90;;
21488;SDS011;10906;45.194;5.684;2022-09-09T21:11:21;3.05;;;0.98;;
21488;SDS011;10906;45.194;5.684;2022-09-09T21:14:06;3.75;;;1.20;;
21488;SDS011;10906;45.194;5.684;2022-09-09T21:16:51;6.20;;;1.20;;
21488;SDS011;10906;45.194;5.684;2022-09-09T21:19:37;2.22;;;1.00;;
21488;SDS011;10906;45.194;5.684;2022-09-09T21:22:21;4.00;;;0.90;;
21488;SDS011;10906;45.194;5.684;2022-09-09T21:25:06;5.60;;;1.33;;
21488;SDS011;10906;45.194;5.684;2022-09-09T21:27:51;1.95;;;0.95;;
21488;SDS011;10906;45.194;5.684;2022-09-09T21:30:35;5.10;;;1.30;;
21488;SDS011;10906;45.194;5.684;2022-09-09T21:33:24;2.22;;;1.08;;
21488;SDS011;10906;45.194;5.684;2022-09-09T21:36:11;5.20;;;1.10;;
21488;SDS011;10906;45.194;5.684;2022-09-09T21:38:56;3.10;;;0.88;;
21488;SDS011;10906;45.194;5.684;2022-09-09T21:41:41;8.50;;;1.38;;
21488;SDS011;10906;45.194;5.684;2022-09-09T21:44:25;2.50;;;1.20;;
21488;SDS011;10906;45.194;5.684;2022-09-09T21:47:10;3.97;;;1.23;;
21488;SDS011;10906;45.194;5.684;2022-09-09T21:49:54;6.95;;;1.33;;
21488;SDS011;10906;45.194;5.684;2022-09-09T21:52:39;2.17;;;0.90;;
21488;SDS011;10906;45.194;5.684;2022-09-09T21:55:23;6.00;;;1.00;;
21488;SDS011;10906;45.194;5.684;2022-09-09T21:58:08;3.63;;;1.23;;
